sensor_id;sensor_type;location;lat;lon;timestamp;temperature;humidity
11650;DHT22;5881;48.522;7.682;2023-04-03T00:00:04;5.50;1.00
11650;DHT22;5881;48.522;7.682;2023-04-03T00:02:30;5.40;1.00
11650;DHT22;5881;48.522;7.682;2023-04-03T00:04:59;5.40;1.00
11650;DHT22;5881;48.522;7.682;2023-04-03T00:07:25;5.50;1.00
11650;DHT22;5881;48.522;7.682;2023-04-03T00:09:50;5.40;1.00
11650;DHT22;5881;48.522;7.682;2023-04-03T00:12:16;5.30;1.00
11650;DHT22;5881;48.522;7.682;2023-04-03T00:14:42;5.40;1.00
11650;DHT22;5881;48.522;7.682;2023-04-03T00:17:07;5.30;1.00
11650;DHT22;5881;48.522;7.682;2023-04-03T00:19:33;5.30;1.00
11650;DHT22;5881;48.522;7.682;2023-04-03T00:21:58;5.40;1.00
11650;DHT22;5881;48.522;7.682;2023-04-03T00:24:24;5.20;1.00
11650;DHT22;5881;48.522;7.682;2023-04-03T00:26:50;5.20;1.00
11650;DHT22;5881;48.522;7.682;2023-04-03T00:29:16;5.20;1.00
11650;DHT22;5881;48.522;7.682;2023-04-03T00:31:41;5.20;1.00
11650;DHT22;5881;48.522;7.682;2023-04-03T00:34:07;5.20;1.00
11650;DHT22;5881;48.522;7.682;2023-04-03T00:36:32;5.20;1.00
11650;DHT22;5881;48.522;7.682;2023-04-03T00:38:58;5.20;1.00
11650;DHT22;5881;48.522;7.682;2023-04-03T00:41:24;5.20;1.00
11650;DHT22;5881;48.522;7.682;2023-04-03T00:43:50;5.20;1.00
11650;DHT22;5881;48.522;7.682;2023-04-03T00:46:16;5.20;1.00
11650;DHT22;5881;48.522;7.682;2023-04-03T00:48:44;5.20;1.00
11650;DHT22;5881;48.522;7.682;2023-04-03T00:51:13;5.20;1.00
11650;DHT22;5881;48.522;7.682;2023-04-03T00:54:15;5.10;1.00
11650;DHT22;5881;48.522;7.682;2023-04-03T00:56:36;5.20;1.00
11650;DHT22;5881;48.522;7.682;2023-04-03T00:59:15;5.20;1.00
11650;DHT22;5881;48.522;7.682;2023-04-03T01:01:42;5.20;1.00
11650;DHT22;5881;48.522;7.682;2023-04-03T01:04:27;5.20;1.00
11650;DHT22;5881;48.522;7.682;2023-04-03T01:06:56;5.20;1.00
11650;DHT22;5881;48.522;7.682;2023-04-03T01:09:23;5.10;1.00
11650;DHT22;5881;48.522;7.682;2023-04-03T01:11:48;5.10;1.00
11650;DHT22;5881;48.522;7.682;2023-04-03T01:14:14;5.10;1.00
11650;DHT22;5881;48.522;7.682;2023-04-03T01:16:40;5.10;1.00
11650;DHT22;5881;48.522;7.682;2023-04-03T01:19:10;5.10;1.00
11650;DHT22;5881;48.522;7.682;2023-04-03T01:22:13;5.20;1.00
11650;DHT22;5881;48.522;7.682;2023-04-03T01:24:40;5.20;1.00
11650;DHT22;5881;48.522;7.682;2023-04-03T01:27:09;5.10;1.00
11650;DHT22;5881;48.522;7.682;2023-04-03T01:29:36;5.10;1.00
11650;DHT22;5881;48.522;7.682;2023-04-03T01:32:03;5.10;1.00
11650;DHT22;5881;48.522;7.682;2023-04-03T01:34:30;5.10;1.00
11650;DHT22;5881;48.522;7.682;2023-04-03T01:36:56;5.10;1.00
11650;DHT22;5881;48.522;7.682;2023-04-03T01:39:22;5.10;1.00
11650;DHT22;5881;48.522;7.682;2023-04-03T01:41:48;5.10;1.00
11650;DHT22;5881;48.522;7.682;2023-04-03T01:44:14;5.10;1.00
11650;DHT22;5881;48.522;7.682;2023-04-03T01:46:40;5.10;1.00
11650;DHT22;5881;48.522;7.682;2023-04-03T01:49:07;5.20;1.00
11650;DHT22;5881;48.522;7.682;2023-04-03T01:51:33;5.20;1.00
11650;DHT22;5881;48.522;7.682;2023-04-03T01:53:59;5.20;1.00
11650;DHT22;5881;48.522;7.682;2023-04-03T01:56:24;5.00;1.00
11650;DHT22;5881;48.522;7.682;2023-04-03T01:58:50;5.20;1.00
11650;DHT22;5881;48.522;7.682;2023-04-03T02:01:16;5.20;1.00
11650;DHT22;5881;48.522;7.682;2023-04-03T02:03:42;5.00;1.00
11650;DHT22;5881;48.522;7.682;2023-04-03T02:06:07;5.00;1.00
11650;DHT22;5881;48.522;7.682;2023-04-03T02:08:33;5.10;1.00
11650;DHT22;5881;48.522;7.682;2023-04-03T02:10:59;5.10;1.00
11650;DHT22;5881;48.522;7.682;2023-04-03T02:13:24;5.10;1.00
11650;DHT22;5881;48.522;7.682;2023-04-03T02:15:50;5.00;1.00
11650;DHT22;5881;48.522;7.682;2023-04-03T02:18:16;5.00;1.00
11650;DHT22;5881;48.522;7.682;2023-04-03T02:20:41;5.00;1.00
11650;DHT22;5881;48.522;7.682;2023-04-03T02:23:07;5.00;1.00
11650;DHT22;5881;48.522;7.682;2023-04-03T02:25:33;5.00;1.00
11650;DHT22;5881;48.522;7.682;2023-04-03T02:27:59;5.10;1.00
11650;DHT22;5881;48.522;7.682;2023-04-03T02:30:25;5.00;1.00
11650;DHT22;5881;48.522;7.682;2023-04-03T02:32:50;5.00;1.00
11650;DHT22;5881;48.522;7.682;2023-04-03T02:35:16;5.10;1.00
11650;DHT22;5881;48.522;7.682;2023-04-03T02:37:41;4.90;1.00
11650;DHT22;5881;48.522;7.682;2023-04-03T02:40:08;5.10;1.00
11650;DHT22;5881;48.522;7.682;2023-04-03T02:42:33;5.10;1.00
11650;DHT22;5881;48.522;7.682;2023-04-03T02:44:59;5.00;1.00
11650;DHT22;5881;48.522;7.682;2023-04-03T02:47:26;5.00;1.00
11650;DHT22;5881;48.522;7.682;2023-04-03T02:49:52;5.20;1.00
11650;DHT22;5881;48.522;7.682;2023-04-03T02:52:18;5.00;1.00
11650;DHT22;5881;48.522;7.682;2023-04-03T02:54:44;5.10;1.00
11650;DHT22;5881;48.522;7.682;2023-04-03T02:57:09;5.00;1.00
11650;DHT22;5881;48.522;7.682;2023-04-03T02:59:36;5.00;1.00
11650;DHT22;5881;48.522;7.682;2023-04-03T03:02:02;5.00;1.00
11650;DHT22;5881;48.522;7.682;2023-04-03T03:04:28;5.00;1.00
11650;DHT22;5881;48.522;7.682;2023-04-03T03:06:53;5.00;1.00
11650;DHT22;5881;48.522;7.682;2023-04-03T03:09:19;5.10;1.00
11650;DHT22;5881;48.522;7.682;2023-04-03T03:11:45;5.00;1.00
11650;DHT22;5881;48.522;7.682;2023-04-03T03:14:10;5.00;1.00
11650;DHT22;5881;48.522;7.682;2023-04-03T03:16:36;5.00;1.00
11650;DHT22;5881;48.522;7.682;2023-04-03T03:19:02;5.00;1.00
11650;DHT22;5881;48.522;7.682;2023-04-03T03:21:27;5.00;1.00
11650;DHT22;5881;48.522;7.682;2023-04-03T03:23:53;5.00;1.00
11650;DHT22;5881;48.522;7.682;2023-04-03T03:26:18;4.90;1.00
11650;DHT22;5881;48.522;7.682;2023-04-03T03:28:45;4.90;1.00
11650;DHT22;5881;48.522;7.682;2023-04-03T03:31:10;4.90;1.00
11650;DHT22;5881;48.522;7.682;2023-04-03T03:33:37;4.90;1.00
11650;DHT22;5881;48.522;7.682;2023-04-03T03:36:03;5.00;1.00
11650;DHT22;5881;48.522;7.682;2023-04-03T03:38:29;4.90;1.00
11650;DHT22;5881;48.522;7.682;2023-04-03T03:40:55;4.80;1.00
11650;DHT22;5881;48.522;7.682;2023-04-03T03:43:20;4.80;1.00
11650;DHT22;5881;48.522;7.682;2023-04-03T03:45:50;4.70;1.00
11650;DHT22;5881;48.522;7.682;2023-04-03T03:48:17;4.80;1.00
11650;DHT22;5881;48.522;7.682;2023-04-03T03:50:42;4.60;1.00
11650;DHT22;5881;48.522;7.682;2023-04-03T03:53:08;4.70;1.00
11650;DHT22;5881;48.522;7.682;2023-04-03T03:55:33;4.70;1.00
11650;DHT22;5881;48.522;7.682;2023-04-03T03:57:59;4.70;1.00
11650;DHT22;5881;48.522;7.682;2023-04-03T04:00:26;4.70;1.00
11650;DHT22;5881;48.522;7.682;2023-04-03T04:02:52;4.70;1.00
11650;DHT22;5881;48.522;7.682;2023-04-03T04:05:18;4.60;1.00
11650;DHT22;5881;48.522;7.682;2023-04-03T04:07:43;4.70;1.00
11650;DHT22;5881;48.522;7.682;2023-04-03T04:10:09;4.60;1.00
11650;DHT22;5881;48.522;7.682;2023-04-03T04:12:35;4.60;1.00
11650;DHT22;5881;48.522;7.682;2023-04-03T04:15:01;4.50;1.00
11650;DHT22;5881;48.522;7.682;2023-04-03T04:17:27;4.50;1.00
11650;DHT22;5881;48.522;7.682;2023-04-03T04:19:53;4.50;1.00
11650;DHT22;5881;48.522;7.682;2023-04-03T04:22:19;4.60;1.00
11650;DHT22;5881;48.522;7.682;2023-04-03T04:24:44;4.50;1.00
11650;DHT22;5881;48.522;7.682;2023-04-03T04:27:10;4.40;1.00
11650;DHT22;5881;48.522;7.682;2023-04-03T04:29:35;4.40;1.00
11650;DHT22;5881;48.522;7.682;2023-04-03T04:32:03;4.40;1.00
11650;DHT22;5881;48.522;7.682;2023-04-03T04:34:28;4.40;1.00
11650;DHT22;5881;48.522;7.682;2023-04-03T04:36:55;4.40;1.00
11650;DHT22;5881;48.522;7.682;2023-04-03T04:39:20;4.50;1.00
11650;DHT22;5881;48.522;7.682;2023-04-03T04:41:46;4.40;1.00
11650;DHT22;5881;48.522;7.682;2023-04-03T04:44:11;4.30;1.00
11650;DHT22;5881;48.522;7.682;2023-04-03T04:46:37;4.30;1.00
11650;DHT22;5881;48.522;7.682;2023-04-03T04:49:03;4.30;1.00
11650;DHT22;5881;48.522;7.682;2023-04-03T04:51:28;4.30;1.00
11650;DHT22;5881;48.522;7.682;2023-04-03T04:53:54;4.30;1.00
11650;DHT22;5881;48.522;7.682;2023-04-03T04:56:19;4.40;1.00
11650;DHT22;5881;48.522;7.682;2023-04-03T04:58:46;4.30;1.00
11650;DHT22;5881;48.522;7.682;2023-04-03T05:01:11;4.10;1.00
11650;DHT22;5881;48.522;7.682;2023-04-03T05:03:37;4.30;1.00
11650;DHT22;5881;48.522;7.682;2023-04-03T05:06:03;4.30;1.00
11650;DHT22;5881;48.522;7.682;2023-04-03T05:08:29;4.30;1.00
11650;DHT22;5881;48.522;7.682;2023-04-03T05:10:55;4.20;1.00
11650;DHT22;5881;48.522;7.682;2023-04-03T05:13:21;4.20;1.00
11650;DHT22;5881;48.522;7.682;2023-04-03T05:15:47;4.20;1.00
11650;DHT22;5881;48.522;7.682;2023-04-03T05:18:12;4.30;1.00
11650;DHT22;5881;48.522;7.682;2023-04-03T05:20:38;4.30;1.00
11650;DHT22;5881;48.522;7.682;2023-04-03T05:23:04;4.30;1.00
11650;DHT22;5881;48.522;7.682;2023-04-03T05:25:30;4.30;1.00
11650;DHT22;5881;48.522;7.682;2023-04-03T05:27:56;4.40;1.00
11650;DHT22;5881;48.522;7.682;2023-04-03T05:30:22;4.40;1.00
11650;DHT22;5881;48.522;7.682;2023-04-03T05:32:48;4.40;1.00
11650;DHT22;5881;48.522;7.682;2023-04-03T05:35:13;4.50;1.00
11650;DHT22;5881;48.522;7.682;2023-04-03T05:37:39;4.40;1.00
11650;DHT22;5881;48.522;7.682;2023-04-03T05:40:06;4.50;1.00
11650;DHT22;5881;48.522;7.682;2023-04-03T05:42:32;4.50;1.00
11650;DHT22;5881;48.522;7.682;2023-04-03T05:44:58;4.50;1.00
11650;DHT22;5881;48.522;7.682;2023-04-03T05:47:24;4.60;1.00
11650;DHT22;5881;48.522;7.682;2023-04-03T05:49:50;4.50;1.00
11650;DHT22;5881;48.522;7.682;2023-04-03T05:52:37;4.60;1.00
11650;DHT22;5881;48.522;7.682;2023-04-03T05:55:03;4.70;1.00
11650;DHT22;5881;48.522;7.682;2023-04-03T05:57:29;4.60;1.00
11650;DHT22;5881;48.522;7.682;2023-04-03T05:59:55;4.60;1.00
11650;DHT22;5881;48.522;7.682;2023-04-03T06:02:22;4.60;1.00
11650;DHT22;5881;48.522;7.682;2023-04-03T06:04:48;4.60;1.00
11650;DHT22;5881;48.522;7.682;2023-04-03T06:07:19;4.70;1.00
11650;DHT22;5881;48.522;7.682;2023-04-03T06:09:46;4.80;1.00
11650;DHT22;5881;48.522;7.682;2023-04-03T06:12:12;4.90;1.00
11650;DHT22;5881;48.522;7.682;2023-04-03T06:14:38;5.00;1.00
11650;DHT22;5881;48.522;7.682;2023-04-03T06:17:04;5.00;1.00
11650;DHT22;5881;48.522;7.682;2023-04-03T06:19:30;5.10;1.00
11650;DHT22;5881;48.522;7.682;2023-04-03T06:21:56;5.00;1.00
11650;DHT22;5881;48.522;7.682;2023-04-03T06:24:22;5.10;1.00
11650;DHT22;5881;48.522;7.682;2023-04-03T06:26:50;5.20;1.00
11650;DHT22;5881;48.522;7.682;2023-04-03T06:29:16;5.20;1.00
11650;DHT22;5881;48.522;7.682;2023-04-03T06:31:42;5.20;1.00
11650;DHT22;5881;48.522;7.682;2023-04-03T06:34:08;5.40;1.00
11650;DHT22;5881;48.522;7.682;2023-04-03T06:36:33;5.50;1.00
11650;DHT22;5881;48.522;7.682;2023-04-03T06:39:00;5.50;1.00
11650;DHT22;5881;48.522;7.682;2023-04-03T06:41:26;5.60;1.00
11650;DHT22;5881;48.522;7.682;2023-04-03T06:43:52;5.80;1.00
11650;DHT22;5881;48.522;7.682;2023-04-03T06:46:20;5.70;1.00
11650;DHT22;5881;48.522;7.682;2023-04-03T06:48:47;5.80;1.00
11650;DHT22;5881;48.522;7.682;2023-04-03T06:51:18;5.80;1.00
11650;DHT22;5881;48.522;7.682;2023-04-03T06:53:45;6.00;1.00
11650;DHT22;5881;48.522;7.682;2023-04-03T06:56:11;6.10;1.00
11650;DHT22;5881;48.522;7.682;2023-04-03T06:58:37;6.10;1.00
11650;DHT22;5881;48.522;7.682;2023-04-03T07:01:02;6.20;1.00
11650;DHT22;5881;48.522;7.682;2023-04-03T07:03:28;6.10;1.00
11650;DHT22;5881;48.522;7.682;2023-04-03T07:05:54;6.20;1.00
11650;DHT22;5881;48.522;7.682;2023-04-03T07:08:19;6.10;96.60
11650;DHT22;5881;48.522;7.682;2023-04-03T07:10:45;6.30;1.00
11650;DHT22;5881;48.522;7.682;2023-04-03T07:13:11;6.60;1.00
11650;DHT22;5881;48.522;7.682;2023-04-03T07:15:37;7.00;1.00
11650;DHT22;5881;48.522;7.682;2023-04-03T07:18:03;7.00;1.00
11650;DHT22;5881;48.522;7.682;2023-04-03T07:20:29;7.30;1.00
11650;DHT22;5881;48.522;7.682;2023-04-03T07:22:55;7.20;1.00
11650;DHT22;5881;48.522;7.682;2023-04-03T07:25:20;7.40;1.00
11650;DHT22;5881;48.522;7.682;2023-04-03T07:27:47;7.50;1.00
11650;DHT22;5881;48.522;7.682;2023-04-03T07:30:13;7.40;1.00
11650;DHT22;5881;48.522;7.682;2023-04-03T07:32:39;7.90;1.00
11650;DHT22;5881;48.522;7.682;2023-04-03T07:35:06;8.10;1.00
11650;DHT22;5881;48.522;7.682;2023-04-03T07:37:31;7.90;1.00
11650;DHT22;5881;48.522;7.682;2023-04-03T07:39:57;8.00;1.00
11650;DHT22;5881;48.522;7.682;2023-04-03T07:42:24;9.00;1.00
11650;DHT22;5881;48.522;7.682;2023-04-03T07:44:53;9.20;1.00
11650;DHT22;5881;48.522;7.682;2023-04-03T07:47:19;8.40;1.00
11650;DHT22;5881;48.522;7.682;2023-04-03T07:49:45;9.10;1.00
11650;DHT22;5881;48.522;7.682;2023-04-03T07:52:11;9.50;1.00
11650;DHT22;5881;48.522;7.682;2023-04-03T07:54:37;9.20;1.00
11650;DHT22;5881;48.522;7.682;2023-04-03T07:57:03;9.70;1.00
11650;DHT22;5881;48.522;7.682;2023-04-03T07:59:29;9.70;1.00
11650;DHT22;5881;48.522;7.682;2023-04-03T08:01:54;10.50;1.00
11650;DHT22;5881;48.522;7.682;2023-04-03T08:04:20;11.00;1.00
11650;DHT22;5881;48.522;7.682;2023-04-03T08:06:46;10.40;1.00
11650;DHT22;5881;48.522;7.682;2023-04-03T08:09:12;10.90;1.00
11650;DHT22;5881;48.522;7.682;2023-04-03T08:11:39;13.40;1.00
11650;DHT22;5881;48.522;7.682;2023-04-03T08:14:05;13.80;1.00
11650;DHT22;5881;48.522;7.682;2023-04-03T08:16:30;14.60;1.00
11650;DHT22;5881;48.522;7.682;2023-04-03T08:18:56;13.80;1.00
11650;DHT22;5881;48.522;7.682;2023-04-03T08:21:22;13.00;1.00
11650;DHT22;5881;48.522;7.682;2023-04-03T08:23:49;12.50;1.00
11650;DHT22;5881;48.522;7.682;2023-04-03T08:26:18;12.60;1.00
11650;DHT22;5881;48.522;7.682;2023-04-03T08:28:44;13.50;1.00
11650;DHT22;5881;48.522;7.682;2023-04-03T08:31:13;14.40;1.00
11650;DHT22;5881;48.522;7.682;2023-04-03T08:33:39;15.20;1.00
11650;DHT22;5881;48.522;7.682;2023-04-03T08:36:07;15.50;1.00
11650;DHT22;5881;48.522;7.682;2023-04-03T08:38:34;14.40;1.00
11650;DHT22;5881;48.522;7.682;2023-04-03T08:41:16;15.70;1.00
11650;DHT22;5881;48.522;7.682;2023-04-03T08:44:02;14.40;1.00
11650;DHT22;5881;48.522;7.682;2023-04-03T08:49:43;12.00;1.00
11650;DHT22;5881;48.522;7.682;2023-04-03T08:52:17;14.00;1.00
11650;DHT22;5881;48.522;7.682;2023-04-03T08:54:52;11.80;1.00
11650;DHT22;5881;48.522;7.682;2023-04-03T08:57:31;10.00;1.00
11650;DHT22;5881;48.522;7.682;2023-04-03T09:00:00;10.60;1.00
11650;DHT22;5881;48.522;7.682;2023-04-03T09:02:32;11.10;1.00
11650;DHT22;5881;48.522;7.682;2023-04-03T09:04:59;9.60;1.00
11650;DHT22;5881;48.522;7.682;2023-04-03T09:08:22;12.50;1.00
11650;DHT22;5881;48.522;7.682;2023-04-03T09:10:29;14.20;1.00
11650;DHT22;5881;48.522;7.682;2023-04-03T09:13:28;13.80;1.00
11650;DHT22;5881;48.522;7.682;2023-04-03T09:15:56;14.60;1.00
11650;DHT22;5881;48.522;7.682;2023-04-03T09:18:38;14.80;1.00
11650;DHT22;5881;48.522;7.682;2023-04-03T09:21:31;15.30;1.00
11650;DHT22;5881;48.522;7.682;2023-04-03T09:24:00;16.20;1.00
11650;DHT22;5881;48.522;7.682;2023-04-03T09:26:41;11.70;1.00
11650;DHT22;5881;48.522;7.682;2023-04-03T09:29:17;10.30;1.00
11650;DHT22;5881;48.522;7.682;2023-04-03T09:31:44;10.40;1.00
11650;DHT22;5881;48.522;7.682;2023-04-03T09:34:35;10.50;1.00
11650;DHT22;5881;48.522;7.682;2023-04-03T09:37:03;10.00;1.00
11650;DHT22;5881;48.522;7.682;2023-04-03T09:39:32;9.40;1.00
11650;DHT22;5881;48.522;7.682;2023-04-03T09:42:04;9.80;1.00
11650;DHT22;5881;48.522;7.682;2023-04-03T09:44:39;9.50;1.00
11650;DHT22;5881;48.522;7.682;2023-04-03T09:47:35;9.60;1.00
11650;DHT22;5881;48.522;7.682;2023-04-03T09:52:47;9.60;1.00
11650;DHT22;5881;48.522;7.682;2023-04-03T09:55:18;9.50;1.00
11650;DHT22;5881;48.522;7.682;2023-04-03T09:57:45;9.30;1.00
11650;DHT22;5881;48.522;7.682;2023-04-03T10:00:26;10.20;1.00
11650;DHT22;5881;48.522;7.682;2023-04-03T10:02:56;10.30;1.00
11650;DHT22;5881;48.522;7.682;2023-04-03T10:08:21;9.60;1.00
11650;DHT22;5881;48.522;7.682;2023-04-03T10:11:09;9.20;1.00
11650;DHT22;5881;48.522;7.682;2023-04-03T10:13:35;9.40;1.00
11650;DHT22;5881;48.522;7.682;2023-04-03T10:16:11;9.40;1.00
11650;DHT22;5881;48.522;7.682;2023-04-03T10:18:44;9.50;1.00
11650;DHT22;5881;48.522;7.682;2023-04-03T10:21:27;9.70;1.00
11650;DHT22;5881;48.522;7.682;2023-04-03T10:24:01;9.30;1.00
11650;DHT22;5881;48.522;7.682;2023-04-03T10:29:02;9.30;1.00
11650;DHT22;5881;48.522;7.682;2023-04-03T10:37:01;9.70;1.00
11650;DHT22;5881;48.522;7.682;2023-04-03T10:39:52;10.00;1.00
11650;DHT22;5881;48.522;7.682;2023-04-03T10:42:32;10.40;1.00
11650;DHT22;5881;48.522;7.682;2023-04-03T10:45:28;10.40;1.00
11650;DHT22;5881;48.522;7.682;2023-04-03T10:53:19;10.30;1.00
11650;DHT22;5881;48.522;7.682;2023-04-03T10:58:36;10.40;1.00
11650;DHT22;5881;48.522;7.682;2023-04-03T11:01:09;10.10;1.00
11650;DHT22;5881;48.522;7.682;2023-04-03T11:03:43;10.40;1.00
11650;DHT22;5881;48.522;7.682;2023-04-03T11:06:12;9.50;1.00
11650;DHT22;5881;48.522;7.682;2023-04-03T11:08:45;9.70;1.00
11650;DHT22;5881;48.522;7.682;2023-04-03T11:11:26;9.40;1.00
11650;DHT22;5881;48.522;7.682;2023-04-03T11:14:14;9.50;1.00
11650;DHT22;5881;48.522;7.682;2023-04-03T11:16:46;9.40;1.00
11650;DHT22;5881;48.522;7.682;2023-04-03T11:21:52;10.30;1.00
11650;DHT22;5881;48.522;7.682;2023-04-03T11:24:26;10.40;1.00
11650;DHT22;5881;48.522;7.682;2023-04-03T11:26:54;9.60;1.00
11650;DHT22;5881;48.522;7.682;2023-04-03T11:29:24;8.90;1.00
11650;DHT22;5881;48.522;7.682;2023-04-03T11:34:42;9.30;1.00
11650;DHT22;5881;48.522;7.682;2023-04-03T11:37:30;9.50;1.00
11650;DHT22;5881;48.522;7.682;2023-04-03T11:42:40;9.50;1.00
11650;DHT22;5881;48.522;7.682;2023-04-03T11:45:16;9.60;1.00
11650;DHT22;5881;48.522;7.682;2023-04-03T11:47:49;9.40;1.00
11650;DHT22;5881;48.522;7.682;2023-04-03T12:19:27;9.10;1.00
11650;DHT22;5881;48.522;7.682;2023-04-03T12:24:30;9.00;1.00
11650;DHT22;5881;48.522;7.682;2023-04-03T12:37:43;9.80;1.00
11650;DHT22;5881;48.522;7.682;2023-04-03T12:46:07;9.40;1.00
11650;DHT22;5881;48.522;7.682;2023-04-03T12:48:49;9.30;1.00
11650;DHT22;5881;48.522;7.682;2023-04-03T12:51:40;9.50;1.00
11650;DHT22;5881;48.522;7.682;2023-04-03T12:54:15;9.20;1.00
11650;DHT22;5881;48.522;7.682;2023-04-03T12:56:41;9.30;1.00
11650;DHT22;5881;48.522;7.682;2023-04-03T12:59:14;9.20;1.00
11650;DHT22;5881;48.522;7.682;2023-04-03T13:01:42;9.20;1.00
11650;DHT22;5881;48.522;7.682;2023-04-03T13:04:10;9.20;1.00
11650;DHT22;5881;48.522;7.682;2023-04-03T13:06:42;9.10;1.00
11650;DHT22;5881;48.522;7.682;2023-04-03T13:09:23;9.30;1.00
11650;DHT22;5881;48.522;7.682;2023-04-03T13:11:57;9.10;1.00
11650;DHT22;5881;48.522;7.682;2023-04-03T13:14:25;8.90;1.00
11650;DHT22;5881;48.522;7.682;2023-04-03T13:17:18;9.10;1.00
11650;DHT22;5881;48.522;7.682;2023-04-03T13:19:45;9.20;1.00
11650;DHT22;5881;48.522;7.682;2023-04-03T13:22:27;9.30;1.00
11650;DHT22;5881;48.522;7.682;2023-04-03T13:24:55;9.20;1.00
11650;DHT22;5881;48.522;7.682;2023-04-03T13:27:23;9.30;1.00
11650;DHT22;5881;48.522;7.682;2023-04-03T13:29:54;9.50;1.00
11650;DHT22;5881;48.522;7.682;2023-04-03T13:32:23;9.30;1.00
11650;DHT22;5881;48.522;7.682;2023-04-03T13:34:49;8.90;1.00
11650;DHT22;5881;48.522;7.682;2023-04-03T13:37:33;8.80;1.00
11650;DHT22;5881;48.522;7.682;2023-04-03T13:40:10;9.00;1.00
11650;DHT22;5881;48.522;7.682;2023-04-03T13:42:38;9.10;1.00
11650;DHT22;5881;48.522;7.682;2023-04-03T13:45:24;9.20;1.00
11650;DHT22;5881;48.522;7.682;2023-04-03T13:47:53;9.30;1.00
11650;DHT22;5881;48.522;7.682;2023-04-03T13:50:21;9.20;1.00
11650;DHT22;5881;48.522;7.682;2023-04-03T13:53:03;9.30;1.00
11650;DHT22;5881;48.522;7.682;2023-04-03T13:55:33;9.50;1.00
11650;DHT22;5881;48.522;7.682;2023-04-03T14:03:56;9.50;1.00
11650;DHT22;5881;48.522;7.682;2023-04-03T14:06:23;9.60;1.00
11650;DHT22;5881;48.522;7.682;2023-04-03T14:08:49;9.70;1.00
11650;DHT22;5881;48.522;7.682;2023-04-03T14:11:28;9.40;1.00
11650;DHT22;5881;48.522;7.682;2023-04-03T14:14:00;9.30;1.00
11650;DHT22;5881;48.522;7.682;2023-04-03T14:16:28;9.30;1.00
11650;DHT22;5881;48.522;7.682;2023-04-03T14:18:55;9.10;1.00
11650;DHT22;5881;48.522;7.682;2023-04-03T14:21:22;9.20;1.00
11650;DHT22;5881;48.522;7.682;2023-04-03T14:23:48;9.40;1.00
11650;DHT22;5881;48.522;7.682;2023-04-03T14:26:17;9.50;1.00
11650;DHT22;5881;48.522;7.682;2023-04-03T14:28:45;9.30;1.00
11650;DHT22;5881;48.522;7.682;2023-04-03T14:31:12;9.50;1.00
11650;DHT22;5881;48.522;7.682;2023-04-03T14:33:39;8.90;1.00
11650;DHT22;5881;48.522;7.682;2023-04-03T14:38:42;9.00;1.00
11650;DHT22;5881;48.522;7.682;2023-04-03T14:41:09;8.70;1.00
11650;DHT22;5881;48.522;7.682;2023-04-03T14:43:36;8.70;1.00
11650;DHT22;5881;48.522;7.682;2023-04-03T14:46:02;8.60;1.00
11650;DHT22;5881;48.522;7.682;2023-04-03T14:48:28;8.70;1.00
11650;DHT22;5881;48.522;7.682;2023-04-03T14:50:55;8.80;1.00
11650;DHT22;5881;48.522;7.682;2023-04-03T14:53:21;8.60;1.00
11650;DHT22;5881;48.522;7.682;2023-04-03T14:55:51;8.70;1.00
11650;DHT22;5881;48.522;7.682;2023-04-03T14:58:19;8.70;1.00
11650;DHT22;5881;48.522;7.682;2023-04-03T15:00:46;8.60;1.00
11650;DHT22;5881;48.522;7.682;2023-04-03T15:03:21;8.70;1.00
11650;DHT22;5881;48.522;7.682;2023-04-03T15:05:48;8.60;1.00
11650;DHT22;5881;48.522;7.682;2023-04-03T15:08:23;8.90;1.00
11650;DHT22;5881;48.522;7.682;2023-04-03T15:10:51;8.90;1.00
11650;DHT22;5881;48.522;7.682;2023-04-03T15:13:19;8.70;1.00
11650;DHT22;5881;48.522;7.682;2023-04-03T15:15:45;8.50;1.00
11650;DHT22;5881;48.522;7.682;2023-04-03T15:18:17;8.70;1.00
11650;DHT22;5881;48.522;7.682;2023-04-03T15:20:43;8.60;1.00
11650;DHT22;5881;48.522;7.682;2023-04-03T15:23:11;8.40;1.00
11650;DHT22;5881;48.522;7.682;2023-04-03T15:25:37;8.40;1.00
11650;DHT22;5881;48.522;7.682;2023-04-03T15:28:03;8.40;1.00
11650;DHT22;5881;48.522;7.682;2023-04-03T15:30:29;8.40;1.00
11650;DHT22;5881;48.522;7.682;2023-04-03T15:32:55;8.40;1.00
11650;DHT22;5881;48.522;7.682;2023-04-03T15:35:20;8.30;1.00
11650;DHT22;5881;48.522;7.682;2023-04-03T15:37:46;8.20;1.00
11650;DHT22;5881;48.522;7.682;2023-04-03T15:40:13;8.20;1.00
11650;DHT22;5881;48.522;7.682;2023-04-03T15:42:39;8.20;1.00
11650;DHT22;5881;48.522;7.682;2023-04-03T15:45:06;8.30;1.00
11650;DHT22;5881;48.522;7.682;2023-04-03T15:47:32;8.30;1.00
11650;DHT22;5881;48.522;7.682;2023-04-03T15:49:58;8.30;1.00
11650;DHT22;5881;48.522;7.682;2023-04-03T15:52:24;8.40;1.00
11650;DHT22;5881;48.522;7.682;2023-04-03T15:54:49;8.60;1.00
11650;DHT22;5881;48.522;7.682;2023-04-03T15:57:15;8.70;1.00
11650;DHT22;5881;48.522;7.682;2023-04-03T15:59:40;8.60;1.00
11650;DHT22;5881;48.522;7.682;2023-04-03T16:02:07;8.40;1.00
11650;DHT22;5881;48.522;7.682;2023-04-03T16:04:35;8.30;1.00
11650;DHT22;5881;48.522;7.682;2023-04-03T16:07:02;8.10;1.00
11650;DHT22;5881;48.522;7.682;2023-04-03T16:09:29;8.30;1.00
11650;DHT22;5881;48.522;7.682;2023-04-03T16:11:55;8.10;1.00
11650;DHT22;5881;48.522;7.682;2023-04-03T16:14:21;8.00;1.00
11650;DHT22;5881;48.522;7.682;2023-04-03T16:16:47;7.90;1.00
11650;DHT22;5881;48.522;7.682;2023-04-03T16:19:13;7.80;1.00
11650;DHT22;5881;48.522;7.682;2023-04-03T16:21:38;7.60;1.00
11650;DHT22;5881;48.522;7.682;2023-04-03T16:24:04;7.80;1.00
11650;DHT22;5881;48.522;7.682;2023-04-03T16:26:30;7.80;1.00
11650;DHT22;5881;48.522;7.682;2023-04-03T16:28:56;7.90;1.00
11650;DHT22;5881;48.522;7.682;2023-04-03T16:31:23;8.00;1.00
11650;DHT22;5881;48.522;7.682;2023-04-03T16:33:49;8.10;1.00
11650;DHT22;5881;48.522;7.682;2023-04-03T16:36:15;8.00;1.00
11650;DHT22;5881;48.522;7.682;2023-04-03T16:38:41;8.10;1.00
11650;DHT22;5881;48.522;7.682;2023-04-03T16:41:06;8.00;1.00
11650;DHT22;5881;48.522;7.682;2023-04-03T16:43:32;7.90;1.00
11650;DHT22;5881;48.522;7.682;2023-04-03T16:45:59;7.70;1.00
11650;DHT22;5881;48.522;7.682;2023-04-03T16:48:27;7.70;1.00
11650;DHT22;5881;48.522;7.682;2023-04-03T16:50:53;7.80;1.00
11650;DHT22;5881;48.522;7.682;2023-04-03T16:53:22;7.50;1.00
11650;DHT22;5881;48.522;7.682;2023-04-03T16:55:49;7.50;1.00
11650;DHT22;5881;48.522;7.682;2023-04-03T16:58:15;7.60;1.00
11650;DHT22;5881;48.522;7.682;2023-04-03T17:00:41;7.60;1.00
11650;DHT22;5881;48.522;7.682;2023-04-03T17:03:07;7.50;1.00
11650;DHT22;5881;48.522;7.682;2023-04-03T17:05:32;7.70;1.00
11650;DHT22;5881;48.522;7.682;2023-04-03T17:07:58;7.50;1.00
11650;DHT22;5881;48.522;7.682;2023-04-03T17:10:24;7.50;1.00
11650;DHT22;5881;48.522;7.682;2023-04-03T17:12:50;7.50;1.00
11650;DHT22;5881;48.522;7.682;2023-04-03T17:15:16;7.50;1.00
11650;DHT22;5881;48.522;7.682;2023-04-03T17:17:41;7.40;1.00
11650;DHT22;5881;48.522;7.682;2023-04-03T17:20:07;7.40;1.00
11650;DHT22;5881;48.522;7.682;2023-04-03T17:22:34;7.40;1.00
11650;DHT22;5881;48.522;7.682;2023-04-03T17:25:00;7.40;1.00
11650;DHT22;5881;48.522;7.682;2023-04-03T17:27:25;7.40;1.00
11650;DHT22;5881;48.522;7.682;2023-04-03T17:29:51;7.40;1.00
11650;DHT22;5881;48.522;7.682;2023-04-03T17:32:17;7.40;1.00
11650;DHT22;5881;48.522;7.682;2023-04-03T17:34:45;7.40;1.00
11650;DHT22;5881;48.522;7.682;2023-04-03T17:37:11;7.30;1.00
11650;DHT22;5881;48.522;7.682;2023-04-03T17:39:37;7.30;1.00
11650;DHT22;5881;48.522;7.682;2023-04-03T17:42:03;7.20;1.00
11650;DHT22;5881;48.522;7.682;2023-04-03T17:44:28;7.20;1.00
11650;DHT22;5881;48.522;7.682;2023-04-03T17:46:54;7.10;1.00
11650;DHT22;5881;48.522;7.682;2023-04-03T17:49:19;7.10;1.00
11650;DHT22;5881;48.522;7.682;2023-04-03T17:51:46;7.00;1.00
11650;DHT22;5881;48.522;7.682;2023-04-03T17:54:12;6.90;1.00